Time;durP1;ratioP1;P1;durP2;ratioP2;P2;SDS_P1;SDS_P2;PMS_P1;PMS_P2;Temp;Humidity;BMP_temperature;BMP_pressure;BME280_temperature;BME280_humidity;BME280_pressure;Samples;Min_cycle;Max_cycle;Signal;HPM_P1;HPM_P2
2022/03/26 00:01:44;;;;;;;32.40;13.07;;;5.50;99.90;;;;;;5055604;28;20037;-62
2022/03/26 00:04:11;;;;;;;32.55;12.85;;;5.40;99.90;;;;;;5055627;28;20032;-62
2022/03/26 00:06:38;;;;;;;29.77;12.45;;;5.30;99.90;;;;;;5055516;28;20025;-62
2022/03/26 00:09:04;;;;;;;29.42;12.77;;;5.40;99.90;;;;;;5055293;28;20103;-62
2022/03/26 00:11:30;;;;;;;26.55;12.43;;;5.30;99.90;;;;;;5055131;28;20021;-63
2022/03/26 00:13:56;;;;;;;26.23;11.02;;;5.30;99.90;;;;;;5054217;28;20040;-63
2022/03/26 00:16:21;;;;;;;42.08;13.70;;;5.30;99.90;;;;;;5055156;28;20021;-64
2022/03/26 00:18:47;;;;;;;25.77;11.70;;;5.30;99.90;;;;;;5054393;28;20025;-61
2022/03/26 00:21:13;;;;;;;29.42;10.85;;;5.10;99.90;;;;;;5054185;28;20028;-61
2022/03/26 00:23:40;;;;;;;28.02;12.57;;;5.10;99.90;;;;;;5055190;28;20021;-61
2022/03/26 00:26:05;;;;;;;30.60;13.13;;;5.10;99.90;;;;;;5054276;28;20112;-61
2022/03/26 00:28:31;;;;;;;36.08;11.85;;;5.10;99.90;;;;;;5056518;28;20048;-62
2022/03/26 00:30:57;;;;;;;29.92;11.30;;;5.00;99.90;;;;;;5055401;28;20458;-61
2022/03/26 00:33:25;;;;;;;33.67;11.85;;;5.00;99.90;;;;;;5055256;28;20052;-61
2022/03/26 00:35:51;;;;;;;29.30;11.68;;;5.10;99.90;;;;;;5055376;28;20021;-62
2022/03/26 00:38:17;;;;;;;33.45;14.05;;;5.10;99.90;;;;;;5056882;28;20025;-61
2022/03/26 00:40:43;;;;;;;25.00;11.80;;;5.10;99.90;;;;;;5054558;28;20109;-61
2022/03/26 00:43:09;;;;;;;27.15;11.32;;;5.00;99.90;;;;;;5054170;28;20027;-61
2022/03/26 00:45:35;;;;;;;32.10;13.07;;;5.00;99.90;;;;;;5054734;28;20020;-61
2022/03/26 00:48:01;;;;;;;33.03;13.10;;;5.00;99.90;;;;;;5054582;28;20028;-61
2022/03/26 00:50:27;;;;;;;33.65;12.82;;;5.00;99.90;;;;;;5053092;28;20021;-61
2022/03/26 00:52:53;;;;;;;29.33;11.23;;;5.00;99.90;;;;;;5053909;28;20368;-61
2022/03/26 00:55:19;;;;;;;30.13;12.95;;;5.00;99.90;;;;;;5053161;28;20027;-61
2022/03/26 00:57:45;;;;;;;30.80;11.75;;;5.00;99.90;;;;;;5054246;28;20071;-61
2022/03/26 01:00:12;;;;;;;28.95;12.40;;;5.20;99.90;;;;;;5054721;28;20033;-61
2022/03/26 01:02:38;;;;;;;30.02;12.20;;;5.40;99.90;;;;;;5053337;28;20036;-61
2022/03/26 01:05:04;;;;;;;36.20;13.07;;;5.40;99.90;;;;;;5054696;28;20029;-61
2022/03/26 01:07:30;;;;;;;30.80;13.27;;;5.30;99.90;;;;;;5054007;28;20090;-61
2022/03/26 01:09:57;;;;;;;34.03;12.65;;;5.40;99.90;;;;;;5054107;28;20096;-61
2022/03/26 01:12:24;;;;;;;33.67;13.57;;;5.30;99.90;;;;;;5052856;28;20079;-64
2022/03/26 01:14:51;;;;;;;46.72;18.33;;;5.10;99.90;;;;;;5052784;28;20032;-61
2022/03/26 01:17:17;;;;;;;54.30;22.42;;;5.00;99.90;;;;;;5052601;28;20079;-61
2022/03/26 01:19:43;;;;;;;38.50;14.05;;;5.00;99.90;;;;;;5052666;28;20021;-61
2022/03/26 01:22:09;;;;;;;41.63;15.35;;;4.90;99.90;;;;;;5053776;28;20071;-61
2022/03/26 01:24:35;;;;;;;33.58;13.73;;;4.80;99.90;;;;;;5053714;28;20021;-61
2022/03/26 01:27:01;;;;;;;27.00;14.10;;;4.80;99.90;;;;;;5053753;28;20445;-61
2022/03/26 01:29:26;;;;;;;31.67;13.38;;;4.70;99.90;;;;;;5053714;28;20052;-60
2022/03/26 01:31:53;;;;;;;34.53;12.90;;;4.80;99.90;;;;;;5053951;28;20025;-61
2022/03/26 01:34:18;;;;;;;39.25;13.07;;;4.80;99.90;;;;;;5053646;28;20063;-59
2022/03/26 01:36:44;;;;;;;28.40;12.57;;;4.80;99.90;;;;;;5053526;28;20029;-60
2022/03/26 01:39:10;;;;;;;35.97;12.98;;;4.70;99.90;;;;;;5053556;28;20052;-61
2022/03/26 01:41:36;;;;;;;32.78;12.43;;;4.70;99.90;;;;;;5053536;28;20491;-61
2022/03/26 01:44:02;;;;;;;31.75;11.90;;;4.70;99.90;;;;;;5053559;28;20043;-61
2022/03/26 01:46:47;;;;;;;31.48;12.00;;;4.60;99.90;;;;;;5052352;28;20017;-61
2022/03/26 01:49:13;;;;;;;28.60;12.23;;;4.70;99.90;;;;;;5052075;28;20384;-61
2022/03/26 01:51:38;;;;;;;30.02;11.95;;;4.70;99.90;;;;;;5052103;28;20025;-61
2022/03/26 01:54:04;;;;;;;37.80;12.65;;;4.50;99.90;;;;;;5053590;28;20040;-61
2022/03/26 01:56:30;;;;;;;31.98;11.68;;;4.40;99.90;;;;;;5052072;28;20025;-61
2022/03/26 01:58:57;;;;;;;31.48;11.85;;;4.40;99.90;;;;;;5052369;28;20024;-61
2022/03/26 02:01:22;;;;;;;35.33;13.50;;;4.30;99.90;;;;;;5053170;28;20055;-60
2022/03/26 02:03:48;;;;;;;29.95;11.25;;;4.30;99.90;;;;;;5052030;28;20021;-61
2022/03/26 02:06:14;;;;;;;28.73;12.05;;;4.40;99.90;;;;;;5053201;28;20044;-61
2022/03/26 02:08:40;;;;;;;28.38;11.15;;;4.40;99.90;;;;;;5052241;28;20017;-61
2022/03/26 02:11:05;;;;;;;27.60;11.95;;;4.30;99.90;;;;;;5052445;28;20036;-62
2022/03/26 02:13:54;;;;;;;30.95;11.30;;;4.30;99.90;;;;;;5051672;28;20021;-62
2022/03/26 02:16:21;;;;;;;28.27;12.00;;;4.30;99.90;;;;;;5051895;28;20167;-62
2022/03/26 02:18:48;;;;;;;28.27;11.40;;;4.20;99.90;;;;;;5053071;28;20029;-62
2022/03/26 02:21:14;;;;;;;27.50;12.00;;;4.10;99.90;;;;;;5053046;28;20021;-61
2022/03/26 02:23:40;;;;;;;31.50;13.77;;;4.10;99.90;;;;;;5053334;28;20028;-61
2022/03/26 02:26:05;;;;;;;30.23;12.73;;;4.10;99.90;;;;;;5052966;28;20021;-61
2022/03/26 02:28:33;;;;;;;29.85;12.57;;;4.00;99.90;;;;;;5053000;28;20023;-62
2022/03/26 02:30:58;;;;;;;29.08;12.98;;;4.10;99.90;;;;;;5051782;28;20051;-61
2022/03/26 02:33:24;;;;;;;30.48;11.88;;;4.00;99.90;;;;;;5052143;28;20036;-61
2022/03/26 02:35:50;;;;;;;38.67;14.32;;;4.00;99.90;;;;;;5053283;28;20052;-61
2022/03/26 02:38:23;;;;;;;30.23;12.55;;;4.00;99.90;;;;;;5052591;28;20025;-62
2022/03/26 02:40:49;;;;;;;36.42;12.68;;;4.00;99.90;;;;;;5053034;28;20117;-59
2022/03/26 02:43:15;;;;;;;29.92;12.15;;;4.00;99.90;;;;;;5054188;28;20049;-62
2022/03/26 02:45:44;;;;;;;33.05;12.20;;;4.00;99.90;;;;;;5052136;28;20049;-61
2022/03/26 02:48:12;;;;;;;35.67;13.30;;;3.90;99.90;;;;;;5051893;28;20017;-61
2022/03/26 02:50:39;;;;;;;30.77;12.05;;;3.90;99.90;;;;;;5052814;28;20017;-61
2022/03/26 02:53:05;;;;;;;35.50;13.70;;;3.90;99.90;;;;;;5051758;28;20021;-61
2022/03/26 02:55:31;;;;;;;28.95;12.27;;;3.90;99.90;;;;;;5051553;28;20541;-61
2022/03/26 02:57:56;;;;;;;39.05;14.23;;;4.00;99.90;;;;;;5051747;28;20406;-61
2022/03/26 03:00:22;;;;;;;34.80;12.02;;;4.00;99.90;;;;;;5052400;28;20039;-61
2022/03/26 03:02:48;;;;;;;33.70;12.60;;;4.00;99.90;;;;;;5051351;28;20106;-58
2022/03/26 03:05:14;;;;;;;35.60;13.23;;;4.00;99.90;;;;;;5052962;28;20376;-60
2022/03/26 03:07:40;;;;;;;34.50;13.27;;;3.90;99.90;;;;;;5052572;28;20021;-59
2022/03/26 03:10:06;;;;;;;32.22;12.93;;;3.90;99.90;;;;;;5053083;28;20088;-60
2022/03/26 03:12:32;;;;;;;32.28;12.25;;;3.90;99.90;;;;;;5052918;28;20100;-61
2022/03/26 03:14:58;;;;;;;33.67;12.15;;;3.90;99.90;;;;;;5051275;28;20071;-61
2022/03/26 03:17:24;;;;;;;37.30;14.35;;;4.00;99.90;;;;;;5052740;28;20075;-61
2022/03/26 03:19:49;;;;;;;33.83;12.65;;;3.90;99.90;;;;;;5052481;28;20108;-61
2022/03/26 03:22:16;;;;;;;38.20;12.75;;;3.90;99.90;;;;;;5052612;28;20031;-62
2022/03/26 03:24:42;;;;;;;32.38;12.68;;;3.90;99.90;;;;;;5053505;28;20096;-62
2022/03/26 03:27:08;;;;;;;28.50;11.70;;;3.80;99.90;;;;;;5056012;28;20032;-62
2022/03/26 03:29:34;;;;;;;31.10;12.10;;;3.80;99.90;;;;;;5055979;28;20053;-62
2022/03/26 03:32:00;;;;;;;24.58;10.43;;;4.00;99.90;;;;;;5054630;28;20056;-62
2022/03/26 03:34:25;;;;;;;29.92;11.30;;;4.20;99.90;;;;;;5056198;28;20029;-62
2022/03/26 03:36:51;;;;;;;26.80;11.52;;;4.20;99.90;;;;;;5054503;28;20026;-62
2022/03/26 03:39:17;;;;;;;24.10;11.77;;;4.30;99.90;;;;;;5055818;28;20029;-62
2022/03/26 03:41:42;;;;;;;38.17;11.73;;;4.20;99.90;;;;;;5055625;28;20028;-62
2022/03/26 03:44:10;;;;;;;37.33;12.82;;;4.10;99.90;;;;;;5056432;28;20021;-62
2022/03/26 03:46:36;;;;;;;32.97;13.00;;;4.10;99.90;;;;;;5055845;28;20510;-62
2022/03/26 03:49:03;;;;;;;32.58;13.05;;;4.00;99.90;;;;;;5055879;28;20053;-62
2022/03/26 03:51:29;;;;;;;31.90;12.02;;;4.00;99.90;;;;;;5055550;28;20025;-62
2022/03/26 03:53:54;;;;;;;39.60;12.52;;;3.90;99.90;;;;;;5055494;28;20032;-62
2022/03/26 03:56:20;;;;;;;37.20;13.63;;;3.90;99.90;;;;;;5055348;28;20024;-62
2022/03/26 03:58:46;;;;;;;30.92;12.90;;;3.80;99.90;;;;;;5054186;28;20029;-62
2022/03/26 04:01:12;;;;;;;33.65;13.02;;;3.80;99.90;;;;;;5054446;28;20025;-62
2022/03/26 04:03:37;;;;;;;35.78;12.13;;;3.80;99.90;;;;;;5054369;28;20021;-62
2022/03/26 04:06:05;;;;;;;26.75;11.98;;;3.60;99.90;;;;;;5055191;28;20130;-62
2022/03/26 04:08:31;;;;;;;31.75;12.98;;;3.50;99.90;;;;;;5054493;28;20025;-62
2022/03/26 04:10:56;;;;;;;33.90;11.95;;;3.50;99.90;;;;;;5055749;28;20031;-62
2022/03/26 04:13:22;;;;;;;24.33;11.40;;;3.50;99.90;;;;;;5053984;28;20025;-62
2022/03/26 04:15:48;;;;;;;28.17;12.52;;;3.50;99.90;;;;;;5054580;28;20031;-62
2022/03/26 04:18:13;;;;;;;25.00;11.98;;;3.40;99.90;;;;;;5055083;28;20084;-62
2022/03/26 04:20:40;;;;;;;34.40;12.88;;;3.40;99.90;;;;;;5054968;28;20036;-62
2022/03/26 04:23:06;;;;;;;33.47;12.48;;;3.30;99.90;;;;;;5055151;28;20100;-62
2022/03/26 04:25:32;;;;;;;32.03;12.43;;;3.20;99.90;;;;;;5053559;28;20059;-62
2022/03/26 04:27:58;;;;;;;31.40;12.95;;;3.20;99.90;;;;;;5055216;28;20040;-62
2022/03/26 04:30:23;;;;;;;29.80;11.57;;;3.20;99.90;;;;;;5053633;28;20395;-62
2022/03/26 04:32:49;;;;;;;31.38;12.32;;;3.10;99.90;;;;;;5054795;28;20083;-62
2022/03/26 04:35:15;;;;;;;33.20;13.13;;;3.10;99.90;;;;;;5054611;28;20021;-62
2022/03/26 04:37:41;;;;;;;30.30;11.57;;;3.10;99.90;;;;;;5053327;28;20049;-62
2022/03/26 04:40:11;;;;;;;32.22;11.68;;;3.10;99.90;;;;;;5053387;28;20021;-62
2022/03/26 04:42:41;;;;;;;32.80;12.75;;;3.20;99.90;;;;;;5053290;28;20039;-62
2022/03/26 04:45:09;;;;;;;34.08;12.98;;;3.10;99.90;;;;;;5053353;28;20056;-62
2022/03/26 04:47:34;;;;;;;29.92;13.13;;;3.00;99.90;;;;;;5054398;28;20075;-62
2022/03/26 04:50:00;;;;;;;31.10;11.77;;;2.80;99.90;;;;;;5054735;28;20021;-62
2022/03/26 04:52:26;;;;;;;30.48;10.98;;;2.80;99.90;;;;;;5054635;28;20035;-62
2022/03/26 04:54:51;;;;;;;32.35;11.55;;;2.80;99.90;;;;;;5053441;28;20025;-62
2022/03/26 04:57:18;;;;;;;32.15;12.43;;;2.90;99.90;;;;;;5054206;28;20029;-62
2022/03/26 04:59:44;;;;;;;29.33;11.70;;;3.00;99.90;;;;;;5054282;28;20088;-62
2022/03/26 05:02:10;;;;;;;31.35;11.93;;;2.90;99.90;;;;;;5054127;28;20036;-62
2022/03/26 05:04:35;;;;;;;31.15;11.68;;;2.90;99.90;;;;;;5054479;28;20021;-62
2022/03/26 05:07:45;;;;;;;27.92;12.50;;;2.90;99.90;;;;;;5053214;28;20112;-62
2022/03/26 05:09:46;;;;;;;27.23;11.15;;;2.90;99.90;;;;;;5053972;28;20060;-62
2022/03/26 05:12:12;;;;;;;28.80;11.70;;;2.90;99.90;;;;;;5054022;28;20053;-62
2022/03/26 05:14:38;;;;;;;28.63;12.43;;;2.90;99.90;;;;;;5054103;28;20103;-62
2022/03/26 05:17:03;;;;;;;31.42;12.35;;;3.10;99.90;;;;;;5053152;28;20029;-62
2022/03/26 05:19:29;;;;;;;33.42;12.85;;;3.20;99.90;;;;;;5053854;28;20021;-62
2022/03/26 05:21:54;;;;;;;39.67;13.52;;;3.30;99.90;;;;;;5053865;28;20032;-62
2022/03/26 05:24:20;;;;;;;37.65;12.95;;;3.20;99.90;;;;;;5052507;28;20051;-62
2022/03/26 05:26:46;;;;;;;32.80;12.50;;;3.20;99.90;;;;;;5053672;28;20024;-62
2022/03/26 05:29:11;;;;;;;32.42;12.68;;;3.10;99.90;;;;;;5052466;28;20043;-62
2022/03/26 05:31:37;;;;;;;28.75;12.00;;;3.20;99.90;;;;;;5053752;28;20033;-62
2022/03/26 05:34:03;;;;;;;30.83;12.27;;;3.20;99.90;;;;;;5054231;28;20047;-62
2022/03/26 05:36:28;;;;;;;26.27;11.45;;;3.30;99.90;;;;;;5052652;28;20032;-62
2022/03/26 05:38:54;;;;;;;28.60;12.18;;;3.40;99.90;;;;;;5053829;28;20033;-62
2022/03/26 05:41:20;;;;;;;34.55;13.38;;;3.50;99.90;;;;;;5052557;28;20032;-62
2022/03/26 05:43:45;;;;;;;39.38;13.02;;;3.60;99.90;;;;;;5052285;28;20027;-62
2022/03/26 05:46:11;;;;;;;34.72;12.45;;;3.80;99.90;;;;;;5052158;28;20070;-62
2022/03/26 05:48:37;;;;;;;30.50;12.48;;;4.00;99.90;;;;;;5051660;28;20053;-63
2022/03/26 05:51:02;;;;;;;33.15;12.63;;;4.20;99.90;;;;;;5052041;28;20475;-62
2022/03/26 05:53:28;;;;;;;29.08;12.25;;;4.50;99.90;;;;;;5052152;28;20025;-62
2022/03/26 05:55:53;;;;;;;29.23;12.98;;;4.70;99.90;;;;;;5053274;28;20025;-62
2022/03/26 05:58:19;;;;;;;34.92;12.38;;;4.70;99.90;;;;;;5051959;28;20035;-62
2022/03/26 06:00:45;;;;;;;33.17;11.95;;;4.90;99.90;;;;;;5053042;28;20043;-62
2022/03/26 06:03:11;;;;;;;30.92;13.10;;;4.90;99.90;;;;;;5052034;28;20025;-63
2022/03/26 06:05:38;;;;;;;27.52;11.70;;;5.10;99.90;;;;;;5053113;28;20368;-62
2022/03/26 06:08:04;;;;;;;34.88;12.98;;;5.10;99.90;;;;;;5052259;28;20020;-62
2022/03/26 06:10:30;;;;;;;30.33;13.07;;;5.20;99.90;;;;;;5052086;28;20021;-61
2022/03/26 06:12:55;;;;;;;29.88;12.43;;;5.30;99.90;;;;;;5051847;28;20025;-61
2022/03/26 06:15:21;;;;;;;30.77;13.85;;;5.50;99.90;;;;;;5053753;28;20024;-61
2022/03/26 06:17:47;;;;;;;32.55;14.35;;;6.00;99.90;;;;;;5051700;28;20047;-61
2022/03/26 06:20:12;;;;;;;35.60;13.63;;;6.60;99.90;;;;;;5053115;28;20021;-62
2022/03/26 06:22:38;;;;;;;29.65;13.65;;;7.30;99.90;;;;;;5053015;28;20029;-61
2022/03/26 06:25:04;;;;;;;28.75;12.15;;;8.10;99.90;;;;;;5053293;28;20053;-62
2022/03/26 06:27:30;;;;;;;34.42;13.10;;;8.60;99.90;;;;;;5052960;28;20052;-61
2022/03/26 06:29:55;;;;;;;36.47;14.10;;;9.00;99.90;;;;;;5052597;28;20056;-61
2022/03/26 06:32:21;;;;;;;34.97;13.85;;;9.30;99.90;;;;;;5052975;28;20029;-61
2022/03/26 06:34:47;;;;;;;33.88;13.38;;;10.00;99.90;;;;;;5053111;28;20025;-62
2022/03/26 06:37:12;;;;;;;33.22;13.43;;;10.40;99.90;;;;;;5052940;28;20033;-62
2022/03/26 06:39:38;;;;;;;35.78;14.45;;;10.70;99.90;;;;;;5051658;28;20475;-62
2022/03/26 06:42:04;;;;;;;41.97;15.07;;;11.50;99.90;;;;;;5052476;28;20025;-62
2022/03/26 06:44:29;;;;;;;26.63;13.30;;;11.90;99.90;;;;;;5053206;28;20024;-62
2022/03/26 06:46:55;;;;;;;30.98;14.15;;;12.30;99.90;;;;;;5052819;28;20036;-62
2022/03/26 06:49:21;;;;;;;29.83;12.45;;;12.60;99.90;;;;;;5053126;28;20029;-61
2022/03/26 06:51:46;;;;;;;31.20;14.68;;;13.40;99.90;;;;;;5052775;28;20024;-62
2022/03/26 06:54:12;;;;;;;29.65;14.27;;;13.80;97.50;;;;;;5051569;28;20541;-62
2022/03/26 06:56:37;;;;;;;35.95;15.98;;;14.20;95.90;;;;;;5051553;28;20021;-62
2022/03/26 06:59:05;;;;;;;34.47;16.13;;;14.60;94.80;;;;;;5052491;28;20029;-62
2022/03/26 07:01:31;;;;;;;34.25;14.85;;;14.80;92.90;;;;;;5056765;28;20051;-62
2022/03/26 07:03:57;;;;;;;34.03;16.65;;;15.40;93.10;;;;;;5055563;28;20024;-62
2022/03/26 07:06:23;;;;;;;32.65;14.38;;;15.70;91.20;;;;;;5055616;28;20119;-62
2022/03/26 07:08:49;;;;;;;31.27;15.82;;;16.30;91.40;;;;;;5056412;28;20092;-62
2022/03/26 07:11:16;;;;;;;33.13;15.95;;;16.80;88.10;;;;;;5056755;28;20021;-62
2022/03/26 07:13:41;;;;;;;29.35;15.82;;;17.00;87.10;;;;;;5055093;28;20079;-62
2022/03/26 07:16:07;;;;;;;39.03;17.13;;;17.40;84.50;;;;;;5056246;28;20025;-62
2022/03/26 07:18:34;;;;;;;36.88;17.02;;;17.50;85.00;;;;;;5055115;28;20104;-62
2022/03/26 07:21:00;;;;;;;26.23;14.73;;;17.90;80.30;;;;;;5054991;28;20475;-62
2022/03/26 07:23:27;;;;;;;31.95;16.77;;;18.20;82.00;;;;;;5054941;28;20028;-62
2022/03/26 07:25:53;;;;;;;29.33;16.75;;;19.00;78.60;;;;;;5054938;28;20032;-62
2022/03/26 07:28:19;;;;;;;32.85;18.35;;;19.70;74.70;;;;;;5055727;28;20032;-62
2022/03/26 07:30:44;;;;;;;37.25;19.30;;;19.50;76.70;;;;;;5056069;28;20025;-62
2022/03/26 07:33:10;;;;;;;36.33;17.58;;;20.60;74.10;;;;;;5054834;28;20021;-62
2022/03/26 07:35:35;;;;;;;33.53;17.75;;;21.10;73.30;;;;;;5054717;28;20032;-62
2022/03/26 07:38:01;;;;;;;28.70;17.80;;;21.70;71.10;;;;;;5055991;28;20024;-62
2022/03/26 07:40:28;;;;;;;32.65;18.98;;;22.30;68.10;;;;;;5054688;28;20483;-62
2022/03/26 07:42:54;;;;;;;30.73;16.65;;;22.60;64.10;;;;;;5055764;28;20075;-62
2022/03/26 07:45:19;;;;;;;29.85;17.73;;;23.10;64.70;;;;;;5055760;28;20475;-63
2022/03/26 07:47:45;;;;;;;29.70;15.70;;;22.60;62.40;;;;;;5054700;28;20025;-61
2022/03/26 07:50:11;;;;;;;30.50;16.70;;;22.40;65.80;;;;;;5055598;28;20024;-58
2022/03/26 07:52:36;;;;;;;30.73;16.45;;;22.90;63.50;;;;;;5054420;28;20029;-60
2022/03/26 07:55:03;;;;;;;30.02;17.60;;;22.70;62.10;;;;;;5055845;28;20033;-61
2022/03/26 07:57:28;;;;;;;31.23;18.13;;;23.60;61.20;;;;;;5055405;28;20033;-61
2022/03/26 07:59:54;;;;;;;32.35;19.75;;;24.30;60.80;;;;;;5055593;28;20109;-61
2022/03/26 08:02:20;;;;;;;36.90;18.77;;;24.40;57.70;;;;;;5054701;28;20029;-61
2022/03/26 08:04:46;;;;;;;33.08;18.83;;;25.00;58.20;;;;;;5055697;28;20029;-59
2022/03/26 08:07:12;;;;;;;33.70;19.20;;;25.20;56.90;;;;;;5054073;28;20025;-60
2022/03/26 08:09:38;;;;;;;34.72;20.70;;;25.60;56.70;;;;;;5055961;28;20021;-60
2022/03/26 08:12:04;;;;;;;34.58;21.63;;;25.80;55.20;;;;;;5053490;28;20021;-60
2022/03/26 08:14:30;;;;;;;35.78;20.17;;;26.20;54.90;;;;;;5053904;28;20078;-60
2022/03/26 08:16:56;;;;;;;29.67;19.20;;;26.20;55.00;;;;;;5055135;28;20078;-60
2022/03/26 08:19:22;;;;;;;29.45;18.35;;;27.40;54.70;;;;;;5054224;28;20020;-60
2022/03/26 08:21:48;;;;;;;35.47;21.45;;;28.20;53.60;;;;;;5055237;28;20029;-60
2022/03/26 08:24:14;;;;;;;32.00;20.42;;;27.70;51.80;;;;;;5055070;28;20032;-60
2022/03/26 08:26:40;;;;;;;32.03;19.55;;;28.10;53.30;;;;;;5055198;28;20490;-60
2022/03/26 08:29:06;;;;;;;38.20;21.60;;;28.70;50.90;;;;;;5054955;28;20037;-60
2022/03/26 08:31:32;;;;;;;41.20;23.88;;;29.00;50.50;;;;;;5053695;28;20028;-59
2022/03/26 08:33:59;;;;;;;32.45;20.98;;;29.50;49.10;;;;;;5053563;28;20100;-60
2022/03/26 08:36:26;;;;;;;39.10;21.88;;;29.10;49.70;;;;;;5053592;28;20032;-60
2022/03/26 08:38:51;;;;;;;34.03;20.98;;;28.90;49.30;;;;;;5055146;28;20017;-58
2022/03/26 08:41:22;;;;;;;45.33;23.25;;;28.80;50.10;;;;;;5054606;28;20028;-60
2022/03/26 08:43:51;;;;;;;35.80;21.80;;;29.30;48.40;;;;;;5055287;28;20017;-60
2022/03/26 08:46:19;;;;;;;31.27;21.00;;;29.60;48.90;;;;;;5053368;28;20024;-60
2022/03/26 08:48:45;;;;;;;40.45;23.73;;;30.40;48.00;;;;;;5055133;28;20025;-60
2022/03/26 08:51:11;;;;;;;34.72;21.52;;;30.80;47.30;;;;;;5054531;28;20025;-60
2022/03/26 08:53:37;;;;;;;36.80;21.40;;;30.70;48.00;;;;;;5054552;28;20021;-60
2022/03/26 08:56:05;;;;;;;35.08;21.25;;;30.80;47.40;;;;;;5053319;28;20098;-60
2022/03/26 08:58:31;;;;;;;38.65;23.00;;;30.80;47.30;;;;;;5054688;28;20117;-60
2022/03/26 09:00:57;;;;;;;43.25;23.08;;;30.80;47.00;;;;;;5053378;28;20037;-60
2022/03/26 09:03:22;;;;;;;38.30;22.30;;;31.30;47.30;;;;;;5053064;28;20425;-58
2022/03/26 09:05:49;;;;;;;35.00;23.88;;;32.00;47.40;;;;;;5053804;28;20039;-60
2022/03/26 09:08:15;;;;;;;37.45;24.00;;;32.30;45.80;;;;;;5053051;28;20051;-60
2022/03/26 09:10:40;;;;;;;32.85;21.67;;;32.20;45.30;;;;;;5053820;28;20033;-60
2022/03/26 09:13:06;;;;;;;35.78;23.02;;;32.70;45.50;;;;;;5052900;28;20104;-60
2022/03/26 09:15:32;;;;;;;32.35;20.52;;;32.30;44.00;;;;;;5053953;28;20044;-59
2022/03/26 09:17:59;;;;;;;36.65;23.38;;;32.30;45.90;;;;;;5052821;28;20021;-60
2022/03/26 09:20:26;;;;;;;36.05;21.98;;;32.70;44.60;;;;;;5052726;28;20021;-60
2022/03/26 09:22:52;;;;;;;33.33;23.05;;;32.90;45.50;;;;;;5051894;28;20392;-60
2022/03/26 09:25:19;;;;;;;40.15;25.75;;;33.70;43.40;;;;;;5052704;28;20027;-60
2022/03/26 09:27:44;;;;;;;32.65;21.08;;;32.50;43.60;;;;;;5053835;28;20049;-60
2022/03/26 09:30:10;;;;;;;41.85;24.80;;;31.80;46.40;;;;;;5052884;28;20063;-60
2022/03/26 09:32:36;;;;;;;35.88;23.52;;;31.90;43.70;;;;;;5054068;28;20036;-61
2022/03/26 09:35:02;;;;;;;44.97;26.00;;;33.10;42.90;;;;;;5053878;28;20025;-59
2022/03/26 09:37:27;;;;;;;36.30;22.67;;;32.90;42.80;;;;;;5053656;28;20021;-59
2022/03/26 09:39:54;;;;;;;38.05;23.05;;;33.60;43.70;;;;;;5052470;28;20029;-59
2022/03/26 09:42:23;;;;;;;37.20;21.85;;;33.40;43.10;;;;;;5052362;28;20055;-60
2022/03/26 09:44:50;;;;;;;35.78;24.05;;;33.70;43.10;;;;;;5052359;28;20125;-59
2022/03/26 09:47:16;;;;;;;36.28;22.85;;;33.70;42.10;;;;;;5053851;28;20028;-61
2022/03/26 09:49:42;;;;;;;36.85;23.00;;;34.30;42.20;;;;;;5053777;28;20083;-60
2022/03/26 09:52:08;;;;;;;40.33;23.35;;;33.40;42.20;;;;;;5052311;28;20025;-60
2022/03/26 09:54:36;;;;;;;39.38;23.48;;;33.70;43.00;;;;;;5052248;28;20033;-60
2022/03/26 09:57:05;;;;;;;42.50;25.13;;;33.30;41.90;;;;;;5052581;28;20116;-60
2022/03/26 09:59:31;;;;;;;35.75;23.35;;;32.70;42.70;;;;;;5052169;28;20067;-60
2022/03/26 10:01:56;;;;;;;41.22;23.92;;;32.40;43.60;;;;;;5053735;28;20032;-60
2022/03/26 10:04:23;;;;;;;36.28;22.05;;;31.80;43.20;;;;;;5052054;28;20021;-60
2022/03/26 10:06:50;;;;;;;38.80;23.60;;;32.20;43.00;;;;;;5053218;28;20025;-60
2022/03/26 10:09:46;;;;;;;41.15;24.42;;;31.40;43.50;;;;;;5051977;28;20028;-60
2022/03/26 10:12:17;;;;;;;34.42;22.30;;;30.90;43.40;;;;;;5051401;28;20036;-60
2022/03/26 10:14:46;;;;;;;39.70;21.38;;;30.50;44.50;;;;;;5052858;28;20032;-59
2022/03/26 10:17:18;;;;;;;43.13;24.02;;;30.10;45.20;;;;;;5051889;28;20117;-56
2022/03/26 10:19:55;;;;;;;49.17;23.20;;;27.70;45.60;;;;;;5051981;28;20055;-60
2022/03/26 10:22:23;;;;;;;42.15;22.63;;;26.10;48.70;;;;;;5052612;28;20059;-59
2022/03/26 10:24:49;;;;;;;42.03;23.75;;;25.70;49.00;;;;;;5051909;28;20025;-60
2022/03/26 10:27:16;;;;;;;37.45;22.10;;;25.40;49.00;;;;;;5052973;28;20017;-60
2022/03/26 10:29:52;;;;;;;36.97;20.65;;;25.80;50.40;;;;;;5053393;28;20021;-61
2022/03/26 10:35:28;;;;;;;45.05;24.35;;;26.50;49.40;;;;;;5045176;28;20040;-61
2022/03/26 10:37:58;;;;;;;37.15;21.95;;;26.20;48.60;;;;;;5057244;28;20112;-61
2022/03/26 10:40:29;;;;;;;42.47;21.07;;;25.80;49.70;;;;;;5057023;28;20438;-61
2022/03/26 10:43:01;;;;;;;44.33;23.52;;;25.80;49.80;;;;;;5056930;28;20284;-60
2022/03/26 10:45:29;;;;;;;44.30;23.75;;;24.80;50.20;;;;;;5055699;28;20021;-58
2022/03/26 10:47:57;;;;;;;48.00;22.60;;;24.00;52.10;;;;;;5055962;28;20071;-59
2022/03/26 10:50:30;;;;;;;39.30;19.95;;;22.90;52.60;;;;;;5055640;28;20017;-59
2022/03/26 10:52:56;;;;;;;39.67;20.83;;;22.40;53.90;;;;;;5056879;28;20039;-60
2022/03/26 10:55:23;;;;;;;43.28;21.13;;;22.80;53.70;;;;;;5055617;28;20111;-60
2022/03/26 10:57:51;;;;;;;45.70;22.45;;;23.10;53.30;;;;;;5056723;28;20025;-60
2022/03/26 11:00:19;;;;;;;40.47;20.83;;;23.10;52.90;;;;;;5055293;28;20043;-60
2022/03/26 11:02:45;;;;;;;38.83;18.98;;;22.90;53.80;;;;;;5056482;28;20032;-57
2022/03/26 11:05:11;;;;;;;37.50;19.92;;;22.40;53.80;;;;;;5056117;28;20021;-60
2022/03/26 11:07:41;;;;;;;41.38;19.27;;;21.50;54.40;;;;;;5056449;28;20106;-60
2022/03/26 11:10:13;;;;;;;39.35;19.65;;;20.80;55.70;;;;;;5056545;28;20017;-60
2022/03/26 11:12:45;;;;;;;37.17;18.88;;;20.60;56.40;;;;;;5055281;28;20027;-59
2022/03/26 11:15:19;;;;;;;39.33;19.45;;;20.70;56.20;;;;;;5056757;28;20021;-60
2022/03/26 11:18:22;;;;;;;36.05;17.73;;;20.30;56.40;;;;;;5055157;28;20460;-56
2022/03/26 11:20:55;;;;;;;37.28;17.85;;;20.30;57.30;;;;;;5055136;28;20021;-60
2022/03/26 11:23:46;;;;;;;36.03;18.52;;;20.40;56.80;;;;;;5056155;28;20033;-60
2022/03/26 11:26:20;;;;;;;35.78;18.58;;;20.40;57.20;;;;;;5055236;28;20471;-60
2022/03/26 11:29:34;;;;;;;34.28;15.13;;;20.50;57.50;;;;;;5056080;28;20063;-60
2022/03/26 11:32:18;;;;;;;36.78;13.07;;;19.90;56.70;;;;;;5039365;28;20035;-59
2022/03/26 11:34:46;;;;;;;32.17;15.63;;;19.70;55.90;;;;;;5056105;28;20017;-59
2022/03/26 11:37:21;;;;;;;34.70;12.98;;;19.60;56.20;;;;;;5054736;28;20075;-59
2022/03/26 11:39:51;;;;;;;28.30;13.85;;;19.20;56.80;;;;;;5056275;28;20086;-60
2022/03/26 11:42:37;;;;;;;29.90;14.73;;;19.10;57.10;;;;;;5055490;28;20025;-59
2022/03/26 11:50:46;;;;;;;25.00;12.02;;;19.10;56.90;;;;;;5055791;28;20033;-59
2022/03/26 11:53:35;;;;;;;26.88;11.88;;;18.90;56.70;;;;;;5055735;28;20017;-58
2022/03/26 11:56:04;;;;;;;29.50;12.15;;;18.90;57.50;;;;;;5055552;28;20059;-56
2022/03/26 11:58:30;;;;;;;37.40;13.63;;;19.00;58.10;;;;;;5054396;28;20116;-58
2022/03/26 12:01:01;;;;;;;27.08;12.32;;;19.20;58.10;;;;;;5054184;28;20188;-59
2022/03/26 12:03:30;;;;;;;28.00;13.13;;;18.80;57.50;;;;;;5054392;28;20115;-56
2022/03/26 12:08:49;;;;;;;29.80;11.80;;;18.70;57.70;;;;;;5055723;28;20119;-59
2022/03/26 12:11:15;;;;;;;30.40;11.85;;;18.80;58.50;;;;;;5054202;28;20029;-59
2022/03/26 12:13:40;;;;;;;31.75;12.27;;;18.90;57.40;;;;;;5055376;28;20020;-60
2022/03/26 12:16:07;;;;;;;31.38;13.27;;;18.80;57.20;;;;;;5053843;28;20033;-60
2022/03/26 12:18:37;;;;;;;26.15;11.52;;;18.80;58.00;;;;;;5053946;28;20021;-58
2022/03/26 12:21:21;;;;;;;31.05;12.48;;;18.80;57.30;;;;;;5055448;28;20021;-57
2022/03/26 12:23:46;;;;;;;31.20;12.13;;;18.80;58.00;;;;;;5054000;28;20021;-54
2022/03/26 12:26:12;;;;;;;32.45;13.40;;;18.70;57.80;;;;;;5053794;28;20027;-58
2022/03/26 12:28:41;;;;;;;28.25;12.48;;;18.70;57.80;;;;;;5053777;28;20020;-54
2022/03/26 12:31:11;;;;;;;29.85;12.90;;;18.80;58.40;;;;;;5055307;28;20033;-55
2022/03/26 12:33:43;;;;;;;35.10;14.50;;;18.80;58.70;;;;;;5055254;28;20089;-58
2022/03/26 12:36:09;;;;;;;32.13;14.55;;;18.70;59.20;;;;;;5053766;28;20083;-54
2022/03/26 12:38:35;;;;;;;31.88;13.85;;;18.50;60.00;;;;;;5054018;28;20029;-55
2022/03/26 12:41:04;;;;;;;28.45;13.60;;;18.50;60.90;;;;;;5054902;28;20032;-60
2022/03/26 12:43:30;;;;;;;28.02;12.98;;;18.60;61.00;;;;;;5053821;28;20054;-58
2022/03/26 12:45:58;;;;;;;29.25;13.93;;;18.70;59.70;;;;;;5053511;28;20025;-58